Terminal Aerodrome Forecast
Issued by NWS Milwaukee/Sullivan, WI

Home | Current Version | Previous Version | Text Only | Print | Product List | Glossary On
Versions: 1 2 3 4 5 6 7 8 9 10 11 12 13 14 15 16 17 18 19 20 21 22 23 24 25 26 27 28 29 30 31 32 33 34 35 36 37 38 39 40 41 42 43 44 45 46 47 48 49 50
000
FTUS43 KMKX 202330
TAFMSN
TAF
KMSN 202330Z 2100/2124 11004KT 3/4SM -DZ BR OVC003
      TEMPO 2100/2103 1/4SM -DZ FG OVC002
     FM210300 11004KT 1/4SM -DZ FG OVC002
     FM211500 14006KT 1/4SM -DZ FG OVC003
     FM211700 15006KT 1SM -DZ BR OVC008
     FM212100 18006KT 2SM -DZ BR OVC003
     FM212300 19005KT 1 1/2SM -DZ BR OVC010=

USA.gov is the U.S. government's official web portal to all federal, state and local government web resources and services.